createdAt,value
2018-07-27T00:00:58.958Z,26.30
2018-07-27T00:03:27.047Z,26.20
2018-07-27T00:05:55.186Z,26.20
2018-07-27T00:08:23.355Z,26.20
2018-07-27T00:10:51.513Z,26.10
2018-07-27T00:13:19.714Z,26.10
2018-07-27T00:15:47.879Z,26.00
2018-07-27T00:18:15.989Z,26.00
2018-07-27T00:20:44.093Z,25.90
2018-07-27T00:23:12.202Z,25.90
2018-07-27T00:25:40.298Z,25.90
2018-07-27T00:28:08.541Z,25.90
2018-07-27T00:30:36.750Z,25.90
2018-07-27T00:33:04.904Z,25.90
2018-07-27T00:35:33.034Z,25.90
2018-07-27T00:38:01.187Z,25.90
2018-07-27T00:40:29.300Z,25.80
2018-07-27T00:42:57.412Z,25.80
2018-07-27T00:45:25.505Z,25.80
2018-07-27T00:50:21.541Z,25.80
2018-07-27T00:52:49.658Z,25.80
2018-07-27T00:55:17.935Z,25.70
2018-07-27T00:57:46.209Z,25.70
2018-07-27T01:00:14.385Z,25.70
2018-07-27T01:02:42.509Z,25.70
2018-07-27T01:05:10.645Z,25.70
2018-07-27T01:07:38.807Z,25.70
2018-07-27T01:10:06.977Z,25.70
2018-07-27T01:12:35.161Z,25.60
2018-07-27T01:15:03.305Z,25.60
2018-07-27T01:17:31.425Z,25.60
2018-07-27T01:19:59.527Z,25.60
2018-07-27T01:22:27.637Z,25.50
2018-07-27T01:24:56.243Z,25.50
2018-07-27T01:27:24.356Z,25.40
2018-07-27T01:29:52.504Z,25.40
2018-07-27T01:32:20.598Z,25.30
2018-07-27T01:34:48.705Z,25.30
2018-07-27T01:37:16.836Z,25.30
2018-07-27T01:39:44.991Z,25.30
2018-07-27T01:42:14.185Z,25.20
2018-07-27T01:44:42.287Z,25.20
2018-07-27T01:49:38.578Z,25.10
2018-07-27T01:52:06.685Z,25.10
2018-07-27T01:54:34.810Z,25.10
2018-07-27T01:57:02.999Z,25.00
2018-07-27T01:59:31.094Z,25.00
2018-07-27T02:01:59.960Z,25.00
2018-07-27T02:04:28.037Z,25.00
2018-07-27T02:06:56.151Z,24.90
2018-07-27T02:09:24.283Z,24.90
2018-07-27T02:11:52.714Z,24.90
2018-07-27T02:14:20.844Z,24.90
2018-07-27T02:16:48.960Z,24.80
2018-07-27T02:19:17.050Z,24.80
2018-07-27T02:21:45.173Z,24.80
2018-07-27T02:26:41.221Z,24.70
2018-07-27T02:29:09.333Z,24.60
2018-07-27T02:31:37.429Z,24.60
2018-07-27T02:34:05.602Z,24.60
2018-07-27T02:36:33.761Z,24.60
2018-07-27T02:39:01.897Z,24.60
2018-07-27T02:41:29.984Z,24.50
2018-07-27T02:43:58.089Z,24.50
2018-07-27T02:46:26.200Z,24.50
2018-07-27T02:48:54.321Z,24.50
2018-07-27T02:51:22.496Z,24.50
2018-07-27T02:53:50.562Z,24.50
2018-07-27T02:56:18.669Z,24.50
2018-07-27T02:58:46.769Z,24.40
2018-07-27T03:01:14.865Z,24.30
2018-07-27T03:03:43.007Z,24.30
2018-07-27T03:06:11.196Z,24.30
2018-07-27T03:08:39.300Z,24.30
2018-07-27T03:11:07.421Z,24.20
2018-07-27T03:13:35.530Z,24.20
2018-07-27T03:16:03.690Z,24.20
2018-07-27T03:18:31.810Z,24.20
2018-07-27T03:20:59.962Z,24.20
2018-07-27T03:23:28.282Z,24.20
2018-07-27T03:25:56.389Z,24.20
2018-07-27T03:28:24.550Z,24.20
2018-07-27T03:30:52.685Z,24.10
2018-07-27T03:33:20.785Z,24.10
2018-07-27T03:35:48.881Z,24.10
2018-07-27T03:38:17.029Z,24.00
2018-07-27T03:40:45.078Z,24.00
2018-07-27T03:43:13.259Z,24.00
2018-07-27T03:45:41.354Z,23.90
2018-07-27T03:48:10.193Z,23.90
2018-07-27T03:50:40.084Z,23.90
2018-07-27T03:53:08.740Z,23.90
2018-07-27T03:55:36.825Z,23.90
2018-07-27T03:58:04.978Z,23.80
2018-07-27T04:00:33.073Z,23.80
2018-07-27T04:03:01.173Z,23.80
2018-07-27T04:05:29.338Z,23.80
2018-07-27T04:07:57.705Z,23.80
2018-07-27T04:10:25.794Z,23.80
2018-07-27T04:12:53.961Z,23.70
2018-07-27T04:15:22.053Z,23.70
2018-07-27T04:17:58.186Z,23.70
2018-07-27T04:20:26.333Z,23.70
2018-07-27T04:22:54.463Z,23.60
2018-07-27T04:27:50.882Z,23.60
2018-07-27T04:30:19.370Z,23.60
2018-07-27T04:32:48.160Z,23.60
2018-07-27T04:35:16.249Z,23.60
2018-07-27T04:37:44.352Z,23.60
2018-07-27T04:40:12.481Z,23.60
2018-07-27T04:42:40.588Z,23.60
2018-07-27T04:45:08.811Z,23.60
2018-07-27T04:47:36.995Z,23.60
2018-07-27T04:50:05.757Z,23.60
2018-07-27T04:52:33.945Z,23.60
2018-07-27T04:55:02.066Z,23.60
2018-07-27T04:57:30.185Z,23.60
2018-07-27T04:59:58.301Z,23.50
2018-07-27T05:02:26.409Z,23.60
2018-07-27T05:04:54.574Z,23.50
2018-07-27T05:07:22.674Z,23.60
2018-07-27T05:09:50.777Z,23.60
2018-07-27T05:12:18.914Z,23.60
2018-07-27T05:14:47.046Z,23.60
2018-07-27T05:17:15.158Z,23.60
2018-07-27T05:19:43.333Z,23.70
2018-07-27T05:22:11.482Z,23.70
2018-07-27T05:24:39.631Z,23.70
2018-07-27T05:27:07.653Z,23.70
2018-07-27T05:29:35.775Z,23.70
2018-07-27T05:32:03.873Z,23.70
2018-07-27T05:34:31.974Z,23.80
2018-07-27T05:37:00.065Z,23.80
2018-07-27T05:39:28.175Z,23.80
2018-07-27T05:41:56.263Z,23.80
2018-07-27T05:44:24.417Z,23.90
2018-07-27T05:46:52.553Z,23.90
2018-07-27T05:49:20.601Z,23.90
2018-07-27T05:51:48.681Z,24.00
2018-07-27T05:54:16.769Z,24.00
2018-07-27T05:56:44.860Z,24.00
2018-07-27T05:59:12.971Z,24.10
2018-07-27T06:01:41.049Z,24.10
2018-07-27T06:04:09.157Z,24.20
2018-07-27T06:06:37.227Z,24.20
2018-07-27T06:09:07.758Z,24.20
2018-07-27T06:11:35.890Z,24.30
2018-07-27T06:14:03.989Z,24.30
2018-07-27T06:16:32.092Z,24.30
2018-07-27T06:19:00.205Z,24.40
2018-07-27T06:21:28.328Z,24.40
2018-07-27T06:23:56.600Z,24.40
2018-07-27T06:26:24.573Z,24.50
2018-07-27T06:28:52.699Z,24.50
2018-07-27T06:31:20.800Z,24.60
2018-07-27T06:33:48.897Z,24.60
2018-07-27T06:36:17.033Z,24.60
2018-07-27T06:41:13.437Z,24.70
2018-07-27T06:43:41.617Z,24.70
2018-07-27T06:46:09.789Z,24.80
2018-07-27T06:48:37.902Z,24.80
2018-07-27T06:51:05.985Z,24.80
2018-07-27T06:53:34.818Z,24.90
2018-07-27T06:56:02.913Z,24.90
2018-07-27T06:58:31.432Z,25.00
2018-07-27T07:01:00.482Z,25.00
2018-07-27T07:03:28.610Z,25.10
2018-07-27T07:05:56.650Z,25.20
2018-07-27T07:08:24.753Z,25.30
2018-07-27T07:10:53.077Z,25.30
2018-07-27T07:13:21.185Z,25.40
2018-07-27T07:18:18.280Z,25.50
2018-07-27T07:20:47.345Z,25.50
2018-07-27T07:23:15.433Z,25.60
2018-07-27T07:25:43.657Z,25.60
2018-07-27T07:28:11.661Z,25.70
2018-07-27T07:30:39.769Z,25.80
2018-07-27T07:33:08.324Z,25.80
2018-07-27T07:35:36.398Z,25.90
2018-07-27T07:38:04.502Z,25.90
2018-07-27T07:40:32.646Z,26.00
2018-07-27T07:43:00.741Z,26.00
2018-07-27T07:45:28.865Z,26.10
2018-07-27T07:47:56.954Z,26.10
2018-07-27T07:50:25.266Z,26.20
2018-07-27T07:52:53.380Z,26.30
2018-07-27T07:55:21.697Z,26.30
2018-07-27T07:57:49.813Z,26.40
2018-07-27T08:00:17.910Z,26.50
2018-07-27T08:02:46.209Z,26.50
2018-07-27T08:05:14.357Z,26.50
2018-07-27T08:07:42.436Z,26.60
2018-07-27T08:10:10.541Z,26.60
2018-07-27T08:12:38.649Z,26.60
2018-07-27T08:15:06.789Z,26.70
2018-07-27T08:17:34.898Z,26.80
2018-07-27T08:20:03.042Z,26.80
2018-07-27T08:22:31.145Z,26.80
2018-07-27T08:24:59.257Z,26.90
2018-07-27T08:27:27.351Z,27.00
2018-07-27T08:29:55.456Z,27.10
2018-07-27T08:32:23.537Z,27.10
2018-07-27T08:34:51.652Z,27.20
2018-07-27T08:37:19.741Z,27.30
2018-07-27T08:39:47.908Z,27.30
2018-07-27T08:42:15.942Z,27.40
2018-07-27T08:44:44.070Z,27.40
2018-07-27T08:49:40.071Z,27.60
2018-07-27T08:52:08.205Z,27.60
2018-07-27T08:54:36.350Z,27.70
2018-07-27T08:59:32.546Z,27.80
2018-07-27T09:02:00.947Z,27.90
2018-07-27T09:04:29.394Z,27.90
2018-07-27T09:06:58.098Z,28.00
2018-07-27T09:09:26.220Z,28.10
2018-07-27T09:11:54.345Z,28.10
2018-07-27T09:14:22.502Z,28.20
2018-07-27T09:16:50.626Z,28.30
2018-07-27T09:19:18.777Z,28.40
2018-07-27T09:21:46.901Z,28.40
2018-07-27T09:24:15.064Z,28.40
2018-07-27T09:26:43.111Z,28.40
2018-07-27T09:29:11.246Z,28.50
2018-07-27T09:31:39.345Z,28.60
2018-07-27T09:34:07.474Z,28.60
2018-07-27T09:36:35.579Z,28.70
2018-07-27T09:39:05.745Z,28.80
2018-07-27T09:41:33.905Z,28.90
2018-07-27T09:44:01.998Z,29.10
2018-07-27T09:46:30.152Z,29.20
2018-07-27T09:48:58.246Z,29.20
2018-07-27T09:51:26.488Z,29.30
2018-07-27T09:53:54.610Z,29.40
2018-07-27T09:56:22.724Z,29.50
2018-07-27T09:58:50.830Z,29.50
2018-07-27T10:01:22.809Z,29.60
2018-07-27T10:03:51.615Z,29.70
2018-07-27T10:06:19.718Z,29.80
2018-07-27T10:08:47.841Z,29.80
2018-07-27T10:11:15.949Z,29.90
2018-07-27T10:13:44.053Z,30.00
2018-07-27T10:16:12.162Z,30.00
2018-07-27T10:18:40.305Z,30.20
2018-07-27T10:21:08.949Z,30.30
2018-07-27T10:23:37.189Z,30.30
2018-07-27T10:26:05.478Z,30.50
2018-07-27T10:28:33.570Z,30.50
2018-07-27T10:31:01.711Z,30.60
2018-07-27T10:33:29.813Z,30.60
2018-07-27T10:35:57.937Z,30.60
2018-07-27T10:38:26.065Z,30.70
2018-07-27T10:43:22.094Z,30.90
2018-07-27T10:45:50.209Z,31.00
2018-07-27T10:48:18.306Z,31.20
2018-07-27T10:50:46.428Z,31.30
2018-07-27T10:55:42.489Z,31.40
2018-07-27T10:58:10.576Z,31.50
2018-07-27T11:00:38.690Z,31.50
2018-07-27T11:03:06.777Z,31.60
2018-07-27T11:05:34.898Z,31.60
2018-07-27T11:08:02.981Z,31.70
2018-07-27T11:10:31.241Z,31.70
2018-07-27T11:12:59.329Z,31.70
2018-07-27T11:15:27.444Z,31.80
2018-07-27T11:17:55.617Z,32.00
2018-07-27T11:20:23.833Z,32.10
2018-07-27T11:22:51.949Z,32.30
2018-07-27T11:27:48.133Z,32.60
2018-07-27T11:30:16.289Z,32.60
2018-07-27T11:32:44.551Z,32.70
2018-07-27T11:35:12.644Z,32.70
2018-07-27T11:37:40.757Z,32.90
2018-07-27T11:40:08.905Z,33.00
2018-07-27T11:42:37.090Z,33.00
2018-07-27T11:45:05.217Z,33.10
2018-07-27T11:47:33.298Z,33.20
2018-07-27T11:50:01.429Z,33.20
2018-07-27T11:52:30.530Z,33.20
2018-07-27T11:54:58.778Z,33.20
2018-07-27T11:57:26.972Z,33.30
2018-07-27T11:59:55.189Z,33.40
2018-07-27T12:02:23.349Z,33.50
2018-07-27T12:04:51.507Z,33.50
2018-07-27T12:07:19.756Z,33.60
2018-07-27T12:09:47.945Z,33.70
2018-07-27T12:12:16.121Z,33.90
2018-07-27T12:17:12.443Z,34.20
2018-07-27T12:19:40.703Z,34.30
2018-07-27T12:22:10.051Z,34.50
2018-07-27T12:24:38.133Z,34.60
2018-07-27T12:27:06.462Z,34.70
2018-07-27T12:29:34.617Z,34.80
2018-07-27T12:32:02.839Z,34.80
2018-07-27T12:34:31.045Z,34.90
2018-07-27T12:36:59.229Z,34.90
2018-07-27T12:39:27.325Z,34.90
2018-07-27T12:41:55.517Z,35.10
2018-07-27T12:44:24.520Z,35.40
2018-07-27T12:46:52.647Z,36.00
2018-07-27T12:49:20.765Z,36.90
2018-07-27T12:51:48.906Z,38.10
2018-07-27T12:54:16.998Z,39.40
2018-07-27T12:56:45.090Z,40.70
2018-07-27T13:01:41.088Z,43.10
2018-07-27T13:04:09.177Z,44.30
2018-07-27T13:06:37.305Z,45.40
2018-07-27T13:09:07.211Z,46.40
2018-07-27T13:11:35.343Z,47.10
2018-07-27T13:14:03.926Z,47.60
2018-07-27T13:16:32.069Z,47.80
2018-07-27T13:19:00.230Z,47.80
2018-07-27T13:21:28.329Z,47.50
2018-07-27T13:24:02.152Z,47.10
2018-07-27T13:26:30.461Z,46.60
2018-07-27T13:28:58.626Z,45.70
2018-07-27T13:31:59.417Z,44.90
2018-07-27T13:37:05.222Z,43.30
2018-07-27T13:42:02.866Z,42.30
2018-07-27T13:44:31.958Z,42.00
2018-07-27T13:47:00.341Z,41.70
2018-07-27T13:49:28.922Z,41.50
2018-07-27T13:51:57.630Z,41.20
2018-07-27T13:56:53.724Z,40.70
2018-07-27T13:59:21.849Z,40.30
2018-07-27T14:01:50.305Z,39.80
2018-07-27T14:04:18.443Z,39.40
2018-07-27T14:06:48.174Z,39.20
2018-07-27T14:09:16.336Z,39.00
2018-07-27T14:11:44.497Z,38.70
2018-07-27T14:14:12.903Z,38.50
2018-07-27T14:16:41.580Z,38.50
2018-07-27T14:19:09.971Z,38.40
2018-07-27T14:21:38.126Z,38.20
2018-07-27T14:24:06.209Z,37.90
2018-07-27T14:26:34.349Z,37.80
2018-07-27T14:29:02.509Z,37.90
2018-07-27T14:31:30.621Z,37.80
2018-07-27T14:33:58.749Z,37.70
2018-07-27T14:36:26.870Z,37.60
2018-07-27T14:38:54.973Z,37.60
2018-07-27T14:41:23.167Z,37.60
2018-07-27T14:43:51.695Z,37.60
2018-07-27T14:46:19.846Z,37.70
2018-07-27T14:48:48.015Z,37.70
2018-07-27T14:51:16.123Z,37.70
2018-07-27T14:53:44.284Z,37.70
2018-07-27T14:56:12.389Z,37.70
2018-07-27T14:58:40.563Z,37.70
2018-07-27T15:01:08.631Z,37.70
2018-07-27T15:03:36.749Z,37.70
2018-07-27T15:06:05.000Z,37.60
2018-07-27T15:08:33.129Z,37.50
2018-07-27T15:11:01.246Z,37.50
2018-07-27T15:13:29.399Z,37.40
2018-07-27T15:15:57.522Z,37.40
2018-07-27T15:18:25.641Z,37.30
2018-07-27T15:20:53.755Z,37.30
2018-07-27T15:23:21.877Z,37.30
2018-07-27T15:25:50.002Z,37.40
2018-07-27T15:28:18.227Z,37.40
2018-07-27T15:33:14.291Z,37.40
2018-07-27T15:35:42.586Z,37.50
2018-07-27T15:38:10.727Z,37.50
2018-07-27T15:40:38.849Z,37.50
2018-07-27T15:43:07.057Z,37.60
2018-07-27T15:45:35.197Z,37.60
2018-07-27T15:48:03.410Z,37.70
2018-07-27T15:50:31.521Z,37.60
2018-07-27T15:53:01.592Z,37.60
2018-07-27T15:55:29.859Z,37.60
2018-07-27T15:57:57.952Z,37.60
2018-07-27T16:00:26.126Z,37.60
2018-07-27T16:02:54.221Z,37.60
2018-07-27T16:05:22.317Z,37.60
2018-07-27T16:07:50.438Z,37.60
2018-07-27T16:10:18.566Z,37.50
2018-07-27T16:12:46.681Z,37.50
2018-07-27T16:15:14.817Z,37.50
2018-07-27T16:17:42.990Z,37.40
2018-07-27T16:20:11.103Z,37.40
2018-07-27T16:22:39.447Z,37.40
2018-07-27T16:25:07.807Z,37.40
2018-07-27T16:27:36.003Z,37.40
2018-07-27T16:35:00.561Z,37.20
2018-07-27T16:37:28.643Z,37.20
2018-07-27T16:39:56.758Z,37.20
2018-07-27T16:42:24.934Z,37.20
2018-07-27T16:44:53.042Z,37.20
2018-07-27T16:47:21.347Z,37.20
2018-07-27T16:49:49.504Z,37.20
2018-07-27T16:52:17.630Z,37.20
2018-07-27T16:54:45.750Z,37.30
2018-07-27T16:57:13.909Z,37.30
2018-07-27T16:59:42.087Z,37.30
2018-07-27T17:02:10.174Z,37.40
2018-07-27T17:04:38.385Z,37.30
2018-07-27T17:07:06.833Z,37.30
2018-07-27T17:09:34.937Z,37.20
2018-07-27T17:14:30.988Z,37.20
2018-07-27T17:16:59.154Z,37.10
2018-07-27T17:19:27.213Z,37.00
2018-07-27T17:21:55.343Z,37.00
2018-07-27T17:24:23.682Z,36.90
2018-07-27T17:26:52.092Z,36.80
2018-07-27T17:29:20.389Z,36.70
2018-07-27T17:31:50.302Z,36.70
2018-07-27T17:34:18.474Z,36.60
2018-07-27T17:36:47.206Z,36.40
2018-07-27T17:39:15.302Z,36.30
2018-07-27T17:41:43.418Z,36.20
2018-07-27T17:44:11.547Z,36.20
2018-07-27T17:46:39.661Z,36.10
2018-07-27T17:49:08.525Z,36.00
2018-07-27T17:51:36.613Z,35.90
2018-07-27T17:54:04.946Z,35.80
2018-07-27T17:56:33.037Z,35.70
2018-07-27T17:59:01.149Z,35.70
2018-07-27T18:01:29.295Z,35.60
2018-07-27T18:03:57.393Z,35.60
2018-07-27T18:06:25.529Z,35.50
2018-07-27T18:08:53.747Z,35.40
2018-07-27T18:11:21.959Z,35.40
2018-07-27T18:13:50.262Z,35.30
2018-07-27T18:16:18.372Z,35.20
2018-07-27T18:18:46.494Z,35.10
2018-07-27T18:21:14.605Z,35.00
2018-07-27T18:23:42.836Z,34.90
2018-07-27T18:26:10.858Z,34.90
2018-07-27T18:28:39.303Z,34.80
2018-07-27T18:31:07.433Z,34.70
2018-07-27T18:33:35.567Z,34.70
2018-07-27T18:36:03.834Z,34.60
2018-07-27T18:38:31.933Z,34.50
2018-07-27T18:43:28.058Z,34.30
2018-07-27T18:45:56.309Z,34.20
2018-07-27T18:48:24.607Z,34.00
2018-07-27T18:50:52.862Z,34.00
2018-07-27T18:53:21.345Z,33.90
2018-07-27T18:55:49.445Z,33.80
2018-07-27T18:58:17.533Z,33.70
2018-07-27T19:00:45.655Z,33.60
2018-07-27T19:03:13.806Z,33.60
2018-07-27T19:05:41.920Z,33.50
2018-07-27T19:08:10.071Z,33.40
2018-07-27T19:10:38.233Z,33.40
2018-07-27T19:13:06.349Z,33.30
2018-07-27T19:15:34.593Z,33.10
2018-07-27T19:18:02.715Z,33.00
2018-07-27T19:20:30.946Z,32.80
2018-07-27T19:22:59.039Z,32.80
2018-07-27T19:25:27.212Z,32.70
2018-07-27T19:27:55.492Z,32.70
2018-07-27T19:30:23.593Z,32.60
2018-07-27T19:32:51.736Z,32.50
2018-07-27T19:35:19.853Z,32.40
2018-07-27T19:37:48.001Z,32.30
2018-07-27T19:40:16.140Z,32.30
2018-07-27T19:42:44.271Z,32.30
2018-07-27T19:45:12.469Z,32.20
2018-07-27T19:47:40.587Z,32.20
2018-07-27T19:50:08.725Z,32.20
2018-07-27T19:52:36.854Z,32.10
2018-07-27T19:55:05.169Z,32.10
2018-07-27T19:57:33.291Z,32.10
2018-07-27T20:00:01.413Z,32.00
2018-07-27T20:02:29.570Z,31.90
2018-07-27T20:04:57.617Z,31.90
2018-07-27T20:07:25.737Z,31.80
2018-07-27T20:09:53.830Z,31.80
2018-07-27T20:12:21.949Z,31.70
2018-07-27T20:14:50.260Z,31.60
2018-07-27T20:17:18.406Z,31.50
2018-07-27T20:19:46.533Z,31.50
2018-07-27T20:22:14.847Z,31.40
2018-07-27T20:24:42.961Z,31.30
2018-07-27T20:27:11.339Z,31.20
2018-07-27T20:29:39.500Z,31.20
2018-07-27T20:32:07.622Z,31.10
2018-07-27T20:34:35.847Z,31.10
2018-07-27T20:37:04.120Z,31.00
2018-07-27T20:39:32.376Z,30.90
2018-07-27T20:42:00.925Z,30.80
2018-07-27T20:44:29.049Z,30.70
2018-07-27T20:49:25.101Z,30.50
2018-07-27T20:51:53.227Z,30.40
2018-07-27T20:54:21.341Z,30.40
2018-07-27T20:56:49.485Z,30.30
2018-07-27T20:59:17.789Z,30.20
2018-07-27T21:01:45.940Z,30.10
2018-07-27T21:04:14.330Z,30.00
2018-07-27T21:06:42.829Z,29.90
2018-07-27T21:09:12.211Z,29.80
2018-07-27T21:11:40.869Z,29.70
2018-07-27T21:14:09.453Z,29.70
2018-07-27T21:16:37.578Z,29.70
2018-07-27T21:19:05.749Z,29.70
2018-07-27T21:21:33.930Z,29.60
2018-07-27T21:24:03.114Z,29.50
2018-07-27T21:28:59.453Z,29.40
2018-07-27T21:31:27.581Z,29.30
2018-07-27T21:33:55.773Z,29.30
2018-07-27T21:36:24.113Z,29.30
2018-07-27T21:38:52.227Z,29.20
2018-07-27T21:41:20.295Z,29.00
2018-07-27T21:43:48.449Z,29.00
2018-07-27T21:46:16.569Z,28.90
2018-07-27T21:48:44.758Z,28.80
2018-07-27T21:51:12.894Z,28.60
2018-07-27T21:53:40.348Z,28.30
2018-07-27T21:56:08.685Z,28.10
2018-07-27T21:58:36.889Z,28.00
2018-07-27T22:01:05.379Z,28.00
2018-07-27T22:03:33.530Z,27.90
2018-07-27T22:06:01.638Z,27.80
2018-07-27T22:08:29.894Z,27.70
2018-07-27T22:10:58.883Z,27.60
2018-07-27T22:13:27.013Z,27.60
2018-07-27T22:18:23.248Z,27.50
2018-07-27T22:20:51.445Z,27.50
2018-07-27T22:23:19.578Z,27.40
2018-07-27T22:25:47.783Z,27.30
2018-07-27T22:28:15.897Z,27.30
2018-07-27T22:30:44.069Z,27.30
2018-07-27T22:33:12.564Z,27.30
2018-07-27T22:35:40.966Z,27.20
2018-07-27T22:38:09.149Z,27.30
2018-07-27T22:40:37.474Z,27.20
2018-07-27T22:43:05.603Z,27.20
2018-07-27T22:45:33.759Z,27.10
2018-07-27T22:48:01.906Z,27.10
2018-07-27T22:50:30.108Z,27.00
2018-07-27T22:52:58.194Z,27.00
2018-07-27T22:55:26.497Z,27.00
2018-07-27T22:57:54.592Z,26.90
2018-07-27T23:00:22.737Z,26.90
2018-07-27T23:02:50.841Z,26.90
2018-07-27T23:05:18.965Z,26.90
2018-07-27T23:07:47.136Z,27.00
2018-07-27T23:10:15.289Z,27.00
2018-07-27T23:12:43.463Z,26.90
2018-07-27T23:15:12.840Z,26.90
2018-07-27T23:17:41.009Z,26.90
2018-07-27T23:20:11.816Z,26.80
2018-07-27T23:22:40.347Z,26.80
2018-07-27T23:25:08.927Z,26.80
2018-07-27T23:27:37.601Z,26.80
2018-07-27T23:30:07.318Z,26.80
2018-07-27T23:32:35.794Z,26.80
2018-07-27T23:35:04.069Z,26.80
2018-07-27T23:37:32.445Z,26.80
2018-07-27T23:40:00.622Z,26.90
2018-07-27T23:42:29.666Z,26.90
2018-07-27T23:44:57.808Z,27.00
2018-07-27T23:47:25.977Z,27.00
2018-07-27T23:49:54.108Z,27.00
2018-07-27T23:52:22.384Z,26.90
2018-07-27T23:54:50.808Z,26.90
2018-07-27T23:59:47.257Z,26.80
